Time;durP1;ratioP1;P1;durP2;ratioP2;P2;SDS_P1;SDS_P2;PMS_P1;PMS_P2;Temp;Humidity;BMP_temperature;BMP_pressure;BME280_temperature;BME280_humidity;BME280_pressure;Samples;Min_cycle;Max_cycle;Signal;HPM_P1;HPM_P2
2021/08/03 00:00:52;;;;;;;157.35;62.10;;;;;;;21.77;75.83;100805.40;1830392;78;21050;-63
2021/08/03 00:03:36;;;;;;;101.97;43.92;;;;;;;21.71;76.30;100800.08;1830560;78;21156;-63
2021/08/03 00:06:19;;;;;;;66.33;34.18;;;;;;;21.68;76.32;100802.16;1860808;77;21518;-63
2021/08/03 00:08:50;;;;;;;47.80;23.90;;;;;;;21.63;76.62;100795.00;1830719;78;21136;-63
2021/08/03 00:11:20;;;;;;;42.67;21.97;;;;;;;21.58;76.39;100802.95;1861113;77;21134;-63
2021/08/03 00:13:49;;;;;;;28.92;17.27;;;;;;;21.58;76.24;100802.95;1830462;78;21136;-63
2021/08/03 00:16:19;;;;;;;33.33;19.07;;;;;;;21.56;76.12;100806.71;1861242;77;21121;-63
2021/08/03 00:18:49;;;;;;;28.87;17.15;;;;;;;21.53;75.95;100809.17;1830446;78;21081;-63
2021/08/03 00:21:18;;;;;;;40.05;20.15;;;;;;;21.51;75.88;100809.80;1861155;77;21031;-63
2021/08/03 00:23:48;;;;;;;101.35;37.83;;;;;;;21.48;75.80;100807.86;1830426;78;21066;-63
2021/08/03 00:26:17;;;;;;;138.47;41.05;;;;;;;21.43;75.81;100808.20;1861390;77;21031;-63
2021/08/03 00:28:52;;;;;;;110.35;39.38;;;;;;;21.43;75.66;100807.36;1830459;78;21082;-63
2021/08/03 00:31:26;;;;;;;82.92;32.23;;;;;;;21.39;75.82;100806.77;1861170;77;21051;-63
2021/08/03 00:33:56;;;;;;;47.67;26.07;;;;;;;21.36;75.76;100811.06;1830532;78;21575;-63
2021/08/03 00:36:29;;;;;;;68.75;38.95;;;;;;;21.34;75.69;100811.65;1861129;77;21059;-63
2021/08/03 00:38:59;;;;;;;64.97;41.95;;;;;;;21.31;75.55;100815.94;1830447;78;21129;-63
2021/08/03 00:41:32;;;;;;;56.60;41.05;;;;;;;21.33;75.27;100818.00;1861143;77;21055;-63
2021/08/03 00:44:01;;;;;;;39.85;27.52;;;;;;;21.29;75.42;100813.88;1830399;78;21157;-63
2021/08/03 00:46:31;;;;;;;34.58;25.57;;;;;;;21.25;75.35;100821.32;1861053;77;21099;-63
2021/08/03 00:49:00;;;;;;;55.20;36.58;;;;;;;21.24;75.29;100820.10;1830431;78;21102;-63
2021/08/03 00:51:29;;;;;;;37.33;28.35;;;;;;;21.21;75.31;100816.70;1861226;77;21091;-63
2021/08/03 00:53:58;;;;;;;43.35;29.02;;;;;;;21.18;75.40;100814.27;1830514;78;21595;-63
2021/08/03 00:56:29;;;;;;;37.40;30.05;;;;;;;21.17;75.25;100815.27;1861235;77;21569;-63
2021/08/03 00:58:58;;;;;;;49.85;37.88;;;;;;;21.12;75.35;100816.13;1861236;77;21309;-64
2021/08/03 01:01:29;;;;;;;51.98;33.65;;;;;;;21.11;75.22;100822.45;1830474;78;21168;-64
2021/08/03 01:03:58;;;;;;;41.90;27.75;;;;;;;21.12;75.10;100821.98;1861444;77;21051;-62
2021/08/03 01:06:37;;;;;;;29.48;19.98;;;;;;;21.08;75.05;100832.09;1861371;77;21082;-62
2021/08/03 01:09:15;;;;;;;24.37;15.00;;;;;;;21.05;75.12;100825.63;1830697;78;21145;-62
2021/08/03 01:12:02;;;;;;;22.25;14.50;;;;;;;21.01;75.07;100831.73;1860941;77;21152;-63
2021/08/03 01:14:41;;;;;;;22.15;15.25;;;;;;;21.01;74.88;100833.56;1830043;78;21067;-62
2021/08/03 01:17:15;;;;;;;44.45;22.45;;;;;;;20.96;74.75;100836.59;1861352;77;21059;-62
2021/08/03 01:19:53;;;;;;;39.20;19.15;;;;;;;20.95;74.54;100846.09;1830565;78;21086;-62
2021/08/03 01:22:48;;;;;;;33.45;17.55;;;;;;;20.91;74.50;100843.30;1861380;77;21156;-62
2021/08/03 01:25:23;;;;;;;31.50;16.42;;;;;;;20.87;74.52;100845.38;1830497;78;21098;-62
2021/08/03 01:28:24;;;;;;;29.57;16.17;;;;;;;20.82;74.44;100848.44;1860721;77;21485;-62
2021/08/03 01:30:57;;;;;;;44.15;19.92;;;;;;;20.80;74.50;100849.52;1830606;78;21564;-62
2021/08/03 01:33:30;;;;;;;60.43;25.88;;;;;;;20.78;74.40;100850.97;1861448;77;21086;-62
2021/08/03 01:36:02;;;;;;;40.70;20.05;;;;;;;20.76;74.40;100851.59;1830462;78;21533;-62
2021/08/03 01:38:33;;;;;;;40.55;20.43;;;;;;;20.70;74.49;100846.73;1861249;77;21189;-62
2021/08/03 01:41:05;;;;;;;26.62;13.83;;;;;;;20.71;74.26;100844.91;1830567;78;21154;-62
2021/08/03 01:43:37;;;;;;;18.82;10.32;;;;;;;20.71;74.16;100852.93;1861289;77;21055;-62
2021/08/03 01:46:08;;;;;;;20.77;11.10;;;;;;;20.70;74.01;100852.59;1829360;78;21055;-62
2021/08/03 01:48:38;;;;;;;22.75;11.28;;;;;;;20.67;73.98;100853.66;1818381;79;21081;-62
2021/08/03 01:51:08;;;;;;;48.58;24.85;;;;;;;20.66;73.99;100866.69;1817820;79;21503;-63
2021/08/03 01:53:40;;;;;;;38.73;18.15;;;;;;;20.62;74.13;100864.74;1818247;79;21080;-62
2021/08/03 01:56:10;;;;;;;17.23;12.37;;;;;;;20.60;74.09;100860.44;1818183;79;21561;-62
2021/08/03 01:58:41;;;;;;;17.65;10.78;;;;;;;20.57;74.13;100868.23;1818265;79;21131;-63
2021/08/03 02:01:13;;;;;;;15.32;9.00;;;;;;;20.53;74.19;100865.94;1816305;79;21087;-63
2021/08/03 02:03:44;;;;;;;16.00;9.40;;;;;;;20.46;74.36;100870.06;1818395;79;21132;-64
2021/08/03 02:06:15;;;;;;;26.55;13.88;;;;;;;20.40;74.38;100875.41;1818106;79;21125;-62
2021/08/03 02:08:46;;;;;;;55.55;23.45;;;;;;;20.33;74.57;100880.38;1818252;79;21440;-64
2021/08/03 02:11:17;;;;;;;56.25;23.02;;;;;;;20.32;74.88;100879.99;1818260;79;21139;-63
2021/08/03 02:13:48;;;;;;;70.70;29.35;;;;;;;20.33;74.93;100875.52;1817899;79;21565;-63
2021/08/03 02:16:18;;;;;;;74.75;34.35;;;;;;;20.29;75.12;100872.23;1816334;79;21096;-63
2021/08/03 02:18:48;;;;;;;64.72;33.38;;;;;;;20.27;75.17;100863.48;1817772;79;21108;-63
2021/08/03 02:21:20;;;;;;;65.12;29.00;;;;;;;20.24;75.25;100867.23;1817885;79;21065;-63
2021/08/03 02:23:51;;;;;;;125.78;52.43;;;;;;;20.25;75.08;100869.41;1818088;79;21037;-63
2021/08/03 02:26:20;;;;;;;129.32;55.15;;;;;;;20.27;74.90;100869.30;1818087;79;21080;-63
2021/08/03 02:28:49;;;;;;;207.22;96.53;;;;;;;20.28;74.81;100875.86;1817980;79;21089;-63
2021/08/03 02:31:39;;;;;;;328.40;142.40;;;;;;;20.29;74.84;100872.23;1818093;79;21109;-63
2021/08/03 02:34:15;;;;;;;350.10;159.40;;;;;;;20.29;74.84;100873.57;1817931;79;21088;-63
2021/08/03 02:36:47;;;;;;;281.38;134.20;;;;;;;20.29;74.78;100872.23;1818109;79;21191;-63
2021/08/03 02:39:19;;;;;;;235.17;118.45;;;;;;;20.29;74.78;100871.36;1817991;79;21089;-64
2021/08/03 02:41:51;;;;;;;196.80;100.60;;;;;;;20.30;74.78;100878.42;1818215;79;21065;-63
2021/08/03 02:44:23;;;;;;;118.65;65.30;;;;;;;20.28;74.79;100881.20;1817917;79;21527;-63
2021/08/03 02:46:58;;;;;;;75.15;38.92;;;;;;;20.30;74.74;100882.44;1818253;78;21127;-63
2021/08/03 02:49:47;;;;;;;44.83;26.95;;;;;;;20.32;74.59;100882.67;1835050;78;21092;-63
2021/08/03 02:52:00;;;;;;;34.27;17.75;;;;;;;20.37;74.69;100884.50;1813979;79;21231;-63
2021/08/03 02:54:32;;;;;;;24.90;15.60;;;;;;;20.46;74.53;100886.11;1853197;77;21149;-63
2021/08/03 02:57:04;;;;;;;30.30;14.20;;;;;;;20.57;74.28;100883.44;1822364;78;21611;-63
2021/08/03 02:59:36;;;;;;;28.10;16.10;;;;;;;20.63;74.04;100885.16;1853244;77;21490;-63
2021/08/03 03:02:08;;;;;;;31.68;18.27;;;;;;;20.70;73.78;100886.87;1822306;79;21566;-63
2021/08/03 03:04:58;;;;;;;34.25;20.68;;;;;;;20.83;73.48;100890.27;1853127;77;21040;-62
2021/08/03 03:07:33;;;;;;;32.25;18.35;;;;;;;21.03;73.14;100890.50;1821828;79;21160;-62
2021/08/03 03:10:05;;;;;;;32.13;18.45;;;;;;;21.25;71.66;100888.73;1851698;77;21513;-63
2021/08/03 03:12:37;;;;;;;27.82;15.05;;;;;;;21.34;71.23;100894.67;1822391;78;21548;-63
2021/08/03 03:15:07;;;;;;;19.45;11.43;;;;;;;21.38;70.94;100889.45;1853039;77;21110;-62
2021/08/03 03:17:37;;;;;;;21.12;11.83;;;;;;;21.39;70.60;100897.83;1822553;79;21052;-62
2021/08/03 03:20:07;;;;;;;18.87;10.95;;;;;;;21.45;70.72;100900.52;1853257;77;21051;-62
2021/08/03 03:22:39;;;;;;;16.95;11.68;;;;;;;21.57;70.42;100903.04;1793201;79;21059;-62
2021/08/03 03:25:29;;;;;;;15.63;10.20;;;;;;;21.69;70.04;100905.67;1796231;80;21132;-62
2021/08/03 03:28:01;;;;;;;15.23;9.60;;;;;;;21.75;69.81;100910.55;1796417;80;21155;-62
2021/08/03 03:30:33;;;;;;;17.37;9.40;;;;;;;21.83;69.48;100915.25;1796258;80;21176;-62
2021/08/03 03:33:05;;;;;;;14.38;8.80;;;;;;;21.92;69.06;100915.82;1796179;80;21105;-62
2021/08/03 03:35:36;;;;;;;11.08;8.53;;;;;;;22.00;68.63;100911.15;1795909;80;21091;-63
2021/08/03 03:38:06;;;;;;;12.73;8.45;;;;;;;22.11;68.28;100904.38;1796320;80;21104;-62
2021/08/03 03:40:37;;;;;;;12.68;8.03;;;;;;;22.22;67.80;100915.03;1796114;80;21558;-62
2021/08/03 03:43:06;;;;;;;10.48;6.92;;;;;;;22.30;67.47;100914.44;1796167;80;21092;-63
2021/08/03 03:45:36;;;;;;;18.23;7.25;;;;;;;22.44;67.34;100914.57;1796345;80;21076;-63
2021/08/03 03:48:07;;;;;;;10.28;7.03;;;;;;;22.59;66.84;100910.55;1796039;80;21128;-63
2021/08/03 03:50:39;;;;;;;10.48;7.60;;;;;;;22.78;66.79;100915.64;1791628;80;21072;-63
2021/08/03 03:53:11;;;;;;;12.65;7.55;;;;;;;22.99;66.38;100917.78;1772961;81;21508;-65
2021/08/03 03:55:43;;;;;;;12.83;6.90;;;;;;;23.15;65.37;100915.09;1809370;79;21107;-63
2021/08/03 03:58:14;;;;;;;10.53;7.20;;;;;;;23.31;65.18;100923.00;1808716;79;21546;-63
2021/08/03 04:00:44;;;;;;;13.00;7.65;;;;;;;23.45;64.60;100920.90;1809154;79;21209;-63
2021/08/03 04:03:15;;;;;;;8.88;6.35;;;;;;;23.59;63.90;100919.63;1809265;79;21572;-63
2021/08/03 04:05:46;;;;;;;10.58;7.35;;;;;;;23.66;63.21;100916.26;1809138;79;21593;-66
2021/08/03 04:08:15;;;;;;;11.30;7.45;;;;;;;23.77;62.96;100909.87;1809284;79;21536;-66
2021/08/03 04:10:45;;;;;;;10.60;6.78;;;;;;;23.95;62.58;100917.27;1809145;79;21541;-66
2021/08/03 04:13:14;;;;;;;9.75;6.30;;;;;;;24.14;62.05;100911.84;1809199;79;21675;-67
2021/08/03 04:15:43;;;;;;;11.53;7.50;;;;;;;24.39;61.37;100911.73;1809211;79;21569;-67
2021/08/03 04:18:12;;;;;;;11.93;6.45;;;;;;;24.67;60.99;100911.82;1809092;79;21091;-67
2021/08/03 04:20:42;;;;;;;14.00;7.78;;;;;;;24.95;60.37;100914.03;1808925;79;21054;-66
2021/08/03 04:23:11;;;;;;;13.05;6.90;;;;;;;25.20;59.74;100918.37;1809228;79;21165;-67
2021/08/03 04:25:41;;;;;;;15.68;7.15;;;;;;;25.49;59.57;100920.05;1808898;79;21122;-67
2021/08/03 04:28:10;;;;;;;11.85;7.28;;;;;;;25.80;59.03;100921.39;1809123;79;21055;-67
2021/08/03 04:30:39;;;;;;;12.60;7.40;;;;;;;26.06;58.33;100921.98;1809128;79;21150;-66
2021/08/03 04:33:08;;;;;;;13.03;7.08;;;;;;;26.24;57.60;100921.91;1809239;79;21103;-66
2021/08/03 04:35:36;;;;;;;15.13;7.22;;;;;;;26.36;56.56;100916.61;1809103;79;21083;-66
2021/08/03 04:38:05;;;;;;;11.10;6.40;;;;;;;26.46;56.15;100921.05;1808943;79;21091;-67
2021/08/03 04:40:34;;;;;;;12.00;7.20;;;;;;;26.55;55.93;100918.23;1809153;79;21114;-66
2021/08/03 04:43:03;;;;;;;14.68;6.62;;;;;;;26.71;55.47;100923.44;1809321;79;21596;-65
2021/08/03 04:45:32;;;;;;;8.70;6.53;;;;;;;26.89;54.87;100928.25;1809110;79;21099;-66
2021/08/03 04:48:00;;;;;;;9.33;6.55;;;;;;;27.05;54.60;100922.56;1809101;79;21095;-66
2021/08/03 04:50:30;;;;;;;13.93;6.87;;;;;;;27.22;53.70;100924.30;1809016;79;21095;-67
2021/08/03 04:52:59;;;;;;;11.65;7.33;;;;;;;27.38;53.65;100917.30;1809088;79;21529;-67
2021/08/03 04:55:28;;;;;;;15.95;7.25;;;;;;;27.66;53.69;100910.56;1809096;79;21103;-67
2021/08/03 04:57:56;;;;;;;13.95;7.30;;;;;;;28.03;53.36;100910.59;1809064;79;21244;-67
2021/08/03 05:00:25;;;;;;;9.50;7.05;;;;;;;28.41;52.63;100914.95;1809105;79;21169;-67
2021/08/03 05:02:54;;;;;;;13.70;7.53;;;;;;;28.73;51.92;100915.91;1809041;79;21661;-67
2021/08/03 05:05:24;;;;;;;13.65;6.58;;;;;;;28.84;49.50;100917.39;1809020;79;21664;-67
2021/08/03 05:07:59;;;;;;;10.75;7.20;;;;;;;28.83;49.43;100916.56;1809081;79;21545;-68
2021/08/03 05:10:30;;;;;;;13.38;6.37;;;;;;;28.99;49.28;100921.56;1809130;79;21123;-68
2021/08/03 05:12:59;;;;;;;12.30;6.50;;;;;;;29.23;48.51;100922.85;1809060;79;21079;-67
2021/08/03 05:15:28;;;;;;;16.02;6.50;;;;;;;29.42;48.31;100920.70;1808981;79;21561;-68
2021/08/03 05:17:58;;;;;;;16.30;6.58;;;;;;;29.71;48.15;100919.13;1809021;79;21161;-68
2021/08/03 05:20:26;;;;;;;9.93;6.47;;;;;;;30.05;47.90;100916.53;1809074;79;21568;-68
2021/08/03 05:22:55;;;;;;;14.78;6.47;;;;;;;30.36;47.06;100918.63;1809101;79;21111;-67
2021/08/03 05:25:24;;;;;;;13.98;5.72;;;;;;;30.54;45.55;100912.83;1802922;79;21207;-67
2021/08/03 05:27:53;;;;;;;14.55;6.17;;;;;;;30.66;45.38;100911.84;1820497;79;21032;-68
2021/08/03 05:30:22;;;;;;;12.43;6.40;;;;;;;30.80;44.89;100908.77;1820462;78;21004;-68
2021/08/03 05:32:50;;;;;;;11.63;6.22;;;;;;;31.03;44.83;100903.77;1820498;78;21008;-68
2021/08/03 05:35:19;;;;;;;9.65;5.95;;;;;;;31.28;44.19;100905.61;1820503;79;21122;-68
2021/08/03 05:37:48;;;;;;;11.30;6.05;;;;;;;31.33;43.10;100905.89;1820500;79;21584;-68
2021/08/03 05:40:19;;;;;;;17.60;6.87;;;;;;;31.37;42.92;100909.90;1820613;78;21077;-67
2021/08/03 05:42:48;;;;;;;11.57;6.47;;;;;;;31.61;42.64;100908.71;1820499;79;21053;-68
2021/08/03 05:45:16;;;;;;;17.98;6.05;;;;;;;31.85;41.87;100907.99;1820709;78;21057;-68
2021/08/03 05:47:45;;;;;;;11.12;6.03;;;;;;;31.96;41.46;100899.81;1820650;79;21108;-68
2021/08/03 05:50:14;;;;;;;11.08;5.75;;;;;;;32.19;40.85;100904.54;1820641;79;21116;-68
2021/08/03 05:52:42;;;;;;;11.03;6.03;;;;;;;32.52;40.70;100898.47;1820620;79;21036;-66
2021/08/03 05:55:11;;;;;;;9.90;5.75;;;;;;;32.91;40.56;100897.01;1820638;79;21126;-67
2021/08/03 05:57:40;;;;;;;6.72;5.72;;;;;;;33.29;39.78;100903.34;1820658;79;21076;-66
2021/08/03 06:00:09;;;;;;;7.50;5.10;;;;;;;33.70;38.73;100904.28;1820816;79;21081;-68
2021/08/03 06:02:44;;;;;;;9.40;5.00;;;;;;;34.12;38.12;100904.38;1820834;78;21663;-67
2021/08/03 06:05:13;;;;;;;10.60;4.90;;;;;;;34.54;37.15;100902.23;1820606;79;21130;-67
2021/08/03 06:07:44;;;;;;;8.68;4.83;;;;;;;34.95;36.70;100910.66;1820498;79;21605;-67
2021/08/03 06:10:16;;;;;;;7.70;4.72;;;;;;;35.38;36.42;100906.47;1820688;79;21104;-67
2021/08/03 06:12:46;;;;;;;;;;;;;;;35.79;35.53;100901.58;1823286;78;21031;-67
2021/08/03 06:15:15;;;;;;;6.40;4.22;;;;;;;36.27;36.57;100898.21;1795306;79;20162;-68
2021/08/03 06:17:51;;;;;;;6.25;4.42;;;;;;;36.39;34.25;100903.77;1794511;80;21538;-67
2021/08/03 06:20:20;;;;;;;6.30;4.37;;;;;;;36.56;32.80;100904.00;1795844;80;21047;-67
2021/08/03 06:22:50;;;;;;;5.10;3.37;;;;;;;36.80;31.50;100907.24;1795914;80;21063;-67
2021/08/03 06:25:19;;;;;;;8.63;4.45;;;;;;;37.05;29.29;100907.11;1792621;80;21156;-67
2021/08/03 06:27:49;;;;;;;5.72;3.98;;;;;;;37.36;28.08;100909.91;1791190;80;21486;-67
2021/08/03 06:30:18;;;;;;;6.80;3.67;;;;;;;37.65;27.20;100913.17;1773539;81;21099;-67
2021/08/03 06:32:48;;;;;;;4.72;3.62;;;;;;;37.83;26.61;100915.00;1809058;79;21536;-66
2021/08/03 06:35:17;;;;;;;5.83;3.72;;;;;;;38.07;26.17;100903.17;1809293;79;21134;-67
2021/08/03 06:37:46;;;;;;;5.72;3.35;;;;;;;38.23;25.98;100910.73;1809186;79;21119;-67
2021/08/03 06:40:15;;;;;;;5.42;2.90;;;;;;;38.41;25.26;100900.97;1809226;79;21126;-67
2021/08/03 06:42:49;;;;;;;6.05;3.27;;;;;;;38.54;23.21;100899.05;1809337;79;21682;-66
2021/08/03 06:45:23;;;;;;;5.12;3.08;;;;;;;38.63;22.50;100900.38;1809143;79;21087;-67
2021/08/03 06:48:06;;;;;;;6.85;3.00;;;;;;;38.66;22.07;100898.52;1809210;79;21621;-66
2021/08/03 06:50:37;;;;;;;6.42;3.25;;;;;;;38.71;22.02;100900.53;1809132;79;21126;-66
2021/08/03 06:53:08;;;;;;;11.65;3.47;;;;;;;38.83;21.63;100894.45;1809231;79;21106;-66
2021/08/03 06:55:41;;;;;;;7.95;3.55;;;;;;;39.02;21.76;100893.75;1809097;79;21075;-66
2021/08/03 06:58:12;;;;;;;8.70;3.60;;;;;;;38.93;21.12;100895.19;1809103;79;21121;-67
2021/08/03 07:00:44;;;;;;;9.68;3.60;;;;;;;38.88;21.32;100900.59;1809321;79;21533;-66
2021/08/03 07:03:15;;;;;;;8.83;3.67;;;;;;;38.76;21.60;100900.09;1809241;79;21192;-67
2021/08/03 07:05:46;;;;;;;9.00;4.50;;;;;;;39.00;21.39;100897.27;1809425;79;21114;-66
2021/08/03 07:08:17;;;;;;;6.25;3.83;;;;;;;39.26;22.25;100899.16;1809183;79;21632;-67
2021/08/03 07:10:46;;;;;;;7.53;3.58;;;;;;;39.48;22.25;100900.13;1809135;79;21874;-67
2021/08/03 07:13:16;;;;;;;10.60;3.75;;;;;;;39.74;22.14;100903.32;1809147;79;21174;-67
2021/08/03 07:19:26;;;;;;;9.15;3.45;;;;;;;40.02;21.73;100896.89;1809057;79;21117;-67
2021/08/03 07:21:55;;;;;;;5.30;3.70;;;;;;;40.31;21.38;100900.91;1809130;79;21556;-67
2021/08/03 07:37:43;;;;;;;6.95;4.17;;;;;;;40.41;20.33;100902.44;1809989;79;21251;-67
2021/08/03 07:40:13;;;;;;;3.90;3.20;;;;;;;40.68;20.90;100901.14;1808856;79;21132;-67
2021/08/03 07:42:42;;;;;;;12.78;4.62;;;;;;;41.04;20.54;100904.36;1808850;79;21046;-67
2021/08/03 07:45:11;;;;;;;14.43;4.12;;;;;;;41.26;20.88;100897.97;1808879;79;21047;-67
2021/08/03 07:47:40;;;;;;;9.98;4.22;;;;;;;41.28;20.89;100899.39;1808773;79;21113;-68
2021/08/03 07:50:11;;;;;;;9.68;4.80;;;;;;;41.36;21.09;100896.70;1808884;79;21482;-67
2021/08/03 07:52:39;;;;;;;5.55;3.42;;;;;;;41.50;21.80;100893.49;1809155;79;21051;-67
2021/08/03 07:55:08;;;;;;;4.97;4.17;;;;;;;41.65;21.47;100902.79;1808850;79;21071;-67
2021/08/03 07:57:37;;;;;;;6.90;3.70;;;;;;;41.77;21.59;100899.83;1808808;79;21034;-67
2021/08/03 08:00:07;;;;;;;13.80;4.30;;;;;;;41.74;21.11;100900.38;1808781;79;21184;-69
2021/08/03 08:02:35;;;;;;;4.03;3.62;;;;;;;41.93;21.64;100898.02;1808826;79;21043;-67
2021/08/03 08:05:04;;;;;;;8.00;4.40;;;;;;;41.92;21.56;100896.34;1808987;79;21117;-67
2021/08/03 08:07:33;;;;;;;8.50;4.20;;;;;;;42.02;21.92;100892.27;1808952;79;21031;-67
2021/08/03 08:10:02;;;;;;;6.40;3.62;;;;;;;42.30;21.70;100887.48;1808840;79;21125;-67
2021/08/03 08:12:31;;;;;;;6.25;4.10;;;;;;;42.21;21.58;100885.77;1808844;79;21062;-67
2021/08/03 08:14:59;;;;;;;4.65;3.83;;;;;;;42.39;21.55;100891.96;1808892;79;21063;-68
2021/08/03 08:17:28;;;;;;;6.05;4.25;;;;;;;42.45;20.93;100883.95;1808970;79;21062;-67
2021/08/03 08:19:57;;;;;;;5.00;3.80;;;;;;;42.69;21.55;100878.00;1808801;79;21076;-67
2021/08/03 08:22:25;;;;;;;6.25;4.35;;;;;;;42.80;20.75;100876.92;1808821;79;21078;-67
2021/08/03 08:24:54;;;;;;;6.50;3.92;;;;;;;42.77;19.88;100876.07;1808889;79;21071;-67
2021/08/03 08:27:23;;;;;;;5.60;3.87;;;;;;;42.32;20.67;100872.00;1808723;79;21121;-67
2021/08/03 08:29:52;;;;;;;7.60;3.70;;;;;;;42.19;21.13;100865.84;1808917;79;21027;-67
2021/08/03 08:32:20;;;;;;;5.05;3.72;;;;;;;42.39;20.60;100871.21;1808811;79;21067;-67
2021/08/03 08:34:49;;;;;;;5.58;3.98;;;;;;;42.28;20.98;100862.55;1808818;79;21074;-67
2021/08/03 08:37:18;;;;;;;4.78;3.83;;;;;;;42.33;20.75;100865.34;1808815;79;21148;-67
2021/08/03 08:39:48;;;;;;;9.60;4.10;;;;;;;42.58;20.50;100861.90;1808659;79;21497;-67
2021/08/03 08:42:20;;;;;;;5.08;3.45;;;;;;;42.89;20.21;100862.85;1808815;79;21070;-67
2021/08/03 08:44:49;;;;;;;5.53;3.62;;;;;;;43.23;20.18;100855.97;1808850;79;21157;-67
2021/08/03 08:47:19;;;;;;;7.90;4.58;;;;;;;43.10;18.96;100853.19;1808898;79;21485;-67
2021/08/03 08:49:49;;;;;;;6.67;4.30;;;;;;;42.88;19.54;100857.55;1808812;79;21502;-67
2021/08/03 08:52:18;;;;;;;7.62;4.62;;;;;;;43.05;19.98;100855.38;1808834;79;21129;-67
2021/08/03 08:54:47;;;;;;;6.30;4.35;;;;;;;43.41;19.74;100849.09;1808911;78;21030;-67
2021/08/03 08:57:16;;;;;;;7.53;4.15;;;;;;;43.49;19.04;100849.90;1808821;79;21183;-67
2021/08/03 08:59:45;;;;;;;8.38;4.58;;;;;;;43.31;19.50;100850.75;1808971;79;21047;-67
2021/08/03 09:02:14;;;;;;;7.50;4.40;;;;;;;43.35;19.27;100854.63;1808887;79;21132;-67
2021/08/03 09:04:43;;;;;;;6.35;4.20;;;;;;;43.49;19.19;100855.45;1808730;79;21555;-67
2021/08/03 09:07:12;;;;;;;7.50;4.03;;;;;;;43.62;18.99;100853.48;1808894;79;21647;-67
2021/08/03 09:09:46;;;;;;;8.15;4.58;;;;;;;43.66;19.09;100849.07;1808805;79;21149;-67
2021/08/03 09:12:15;;;;;;;7.17;4.15;;;;;;;43.88;18.84;100850.70;1808821;79;21450;-67
2021/08/03 09:14:45;;;;;;;9.13;4.45;;;;;;;43.69;18.57;100851.27;1808922;79;21559;-67
2021/08/03 09:17:17;;;;;;;5.80;4.12;;;;;;;43.56;19.19;100847.69;1808849;79;21110;-68
2021/08/03 09:19:46;;;;;;;8.05;4.45;;;;;;;43.57;19.64;100842.43;1806810;79;21079;-67
2021/08/03 09:22:28;;;;;;;8.73;3.80;;;;;;;43.64;19.80;100841.59;1808917;79;21066;-66
2021/08/03 09:25:16;;;;;;;16.23;4.65;;;;;;;43.61;19.76;100846.30;1808972;79;21140;-67
2021/08/03 09:27:48;;;;;;;12.13;4.78;;;;;;;43.37;19.87;100841.88;1808803;79;21145;-67
2021/08/03 09:30:22;;;;;;;43.55;6.72;;;;;;;43.25;20.46;100842.67;1808895;79;21058;-66
2021/08/03 09:32:51;;;;;;;6.95;4.50;;;;;;;43.13;20.97;100837.41;1808915;79;21133;-66
2021/08/03 09:35:23;;;;;;;5.20;4.35;;;;;;;43.32;20.91;100833.00;1808945;79;21453;-66
2021/08/03 09:37:53;;;;;;;9.95;3.92;;;;;;;43.59;20.74;100831.89;1809038;79;21057;-67
2021/08/03 09:40:33;;;;;;;11.30;4.70;;;;;;;43.61;20.56;100829.66;1808687;79;21094;-67
2021/08/03 09:43:08;;;;;;;7.90;4.58;;;;;;;43.58;20.93;100828.83;1809160;79;21094;-67
2021/08/03 09:45:46;;;;;;;6.30;4.78;;;;;;;43.69;21.04;100822.16;1809313;79;21156;-67
2021/08/03 09:48:17;;;;;;;8.30;4.42;;;;;;;43.64;20.32;100823.57;1807760;79;21133;-67
2021/08/03 09:50:58;;;;;;;6.03;4.58;;;;;;;43.64;20.45;100819.95;1809098;79;21599;-68
2021/08/03 09:53:50;;;;;;;5.95;4.40;;;;;;;43.51;19.96;100821.34;1809454;79;21608;-67
2021/08/03 09:56:25;;;;;;;7.78;4.30;;;;;;;42.80;19.93;100814.62;1809126;79;21054;-67
2021/08/03 09:58:56;;;;;;;6.55;4.50;;;;;;;42.37;20.51;100815.28;1808989;79;21553;-66
2021/08/03 10:01:27;;;;;;;6.87;5.05;;;;;;;42.39;21.25;100824.17;1809275;79;21209;-67
2021/08/03 10:03:59;;;;;;;9.15;4.42;;;;;;;42.42;21.33;100812.01;1809089;79;21115;-67
2021/08/03 10:06:28;;;;;;;6.10;4.17;;;;;;;42.37;21.86;100811.13;1809334;79;21162;-67
2021/08/03 10:08:58;;;;;;;11.85;4.83;;;;;;;42.45;21.11;100809.80;1809167;79;21662;-66
2021/08/03 10:11:28;;;;;;;8.53;5.10;;;;;;;42.35;21.27;100800.89;1809167;79;21160;-67
2021/08/03 10:13:58;;;;;;;7.90;4.58;;;;;;;42.35;21.35;100796.73;1809190;79;21620;-67
2021/08/03 10:16:27;;;;;;;15.05;5.30;;;;;;;42.14;21.78;100798.60;1809275;79;21087;-67
2021/08/03 10:18:58;;;;;;;12.30;4.85;;;;;;;42.30;21.94;100799.52;1809104;79;21609;-67
2021/08/03 10:21:38;;;;;;;8.28;4.60;;;;;;;42.45;22.10;100795.96;1809669;79;21124;-67
2021/08/03 10:24:28;;;;;;;10.63;4.53;;;;;;;42.52;21.68;100797.39;1809023;79;21138;-67
2021/08/03 10:27:14;;;;;;;11.45;4.62;;;;;;;42.53;21.93;100787.97;1808112;79;21124;-67
2021/08/03 10:29:51;;;;;;;6.92;4.58;;;;;;;42.57;21.87;100794.65;1809271;79;21042;-66
2021/08/03 10:32:39;;;;;;;14.43;4.60;;;;;;;42.66;22.24;100789.39;1809204;79;21047;-66
2021/08/03 10:35:19;;;;;;;7.50;4.67;;;;;;;42.70;21.84;100791.05;1809228;79;21086;-66
2021/08/03 10:38:02;;;;;;;8.90;4.45;;;;;;;42.48;21.26;100787.13;1809244;79;21141;-66
2021/08/03 10:40:49;;;;;;;14.07;5.05;;;;;;;42.21;21.07;100782.03;1809055;79;21107;-67
2021/08/03 10:43:29;;;;;;;10.15;4.80;;;;;;;42.16;21.80;100777.86;1765174;79;21625;-67
2021/08/03 10:46:13;;;;;;;12.53;4.97;;;;;;;42.17;21.73;100773.18;1806379;79;21610;-67
2021/08/03 10:48:45;;;;;;;7.47;5.00;;;;;;;42.23;22.03;100772.09;1809284;79;21058;-66
2021/08/03 10:51:18;;;;;;;6.37;4.33;;;;;;;42.12;21.78;100771.20;1809161;79;21071;-67
2021/08/03 10:54:11;;;;;;;8.65;4.97;;;;;;;41.76;21.56;100772.92;1809142;79;21106;-67
2021/08/03 10:56:58;;;;;;;8.95;4.97;;;;;;;41.33;21.73;100770.13;1809300;79;21079;-66
2021/08/03 10:59:37;;;;;;;10.05;4.65;;;;;;;41.16;21.92;100773.56;1809062;79;21055;-67
2021/08/03 11:02:09;;;;;;;11.57;4.95;;;;;;;40.99;22.29;100773.15;1809180;79;21098;-67
2021/08/03 11:04:49;;;;;;;10.05;4.85;;;;;;;40.92;21.97;100764.80;1809310;79;21126;-66
2021/08/03 11:07:32;;;;;;;11.00;5.05;;;;;;;40.68;22.62;100757.62;1809168;79;21119;-66
2021/08/03 11:10:20;;;;;;;8.60;4.70;;;;;;;40.49;22.97;100757.72;1809163;79;21083;-68
2021/08/03 11:12:53;;;;;;;7.35;4.75;;;;;;;40.39;23.08;100757.59;1809208;79;21145;-66
2021/08/03 11:15:25;;;;;;;9.78;5.10;;;;;;;40.23;23.29;100751.87;1809272;79;21158;-66
2021/08/03 11:17:55;;;;;;;;;;;;;;;40.07;23.28;100752.22;1811845;79;21031;-67
2021/08/03 11:20:42;;;;;;;12.33;4.97;;;;;;;39.92;23.48;100739.08;1809116;79;20436;-67
2021/08/03 11:23:13;;;;;;;9.95;5.10;;;;;;;39.85;24.20;100740.33;1809131;79;21122;-67
2021/08/03 11:25:44;;;;;;;7.95;4.90;;;;;;;39.77;24.00;100747.12;1809289;79;21079;-68
2021/08/03 11:28:21;;;;;;;10.70;4.80;;;;;;;39.78;24.31;100745.19;1809441;79;21146;-67
2021/08/03 11:30:52;;;;;;;8.80;5.05;;;;;;;39.80;24.57;100752.10;1809041;79;21143;-67
2021/08/03 11:33:21;;;;;;;9.05;4.85;;;;;;;39.84;24.26;100750.53;1809222;79;21079;-67
2021/08/03 11:35:50;;;;;;;9.00;4.90;;;;;;;39.84;24.44;100749.16;1809046;79;21489;-65
2021/08/03 11:38:25;;;;;;;12.18;5.12;;;;;;;39.85;24.73;100748.60;1809192;79;21075;-66
2021/08/03 11:41:00;;;;;;;9.90;5.30;;;;;;;39.69;25.06;100737.89;1809082;79;21197;-66
2021/08/03 11:43:28;;;;;;;12.45;5.03;;;;;;;39.40;25.28;100742.14;1809150;79;21130;-66
2021/08/03 11:45:57;;;;;;;8.23;5.10;;;;;;;39.37;25.13;100738.51;1809267;79;21144;-66
2021/08/03 11:48:28;;;;;;;10.13;4.87;;;;;;;39.27;25.26;100735.58;1809167;79;21518;-66
2021/08/03 11:50:57;;;;;;;11.05;5.92;;;;;;;39.07;25.54;100735.56;1809120;79;21182;-66
2021/08/03 11:53:26;;;;;;;9.68;5.60;;;;;;;38.84;26.08;100730.98;1809292;79;21050;-66
2021/08/03 11:55:57;;;;;;;12.65;5.55;;;;;;;38.73;26.35;100736.02;1808993;79;21204;-66